createdAt,value
2017-12-20T00:00:11.455Z,66.00
2017-12-20T00:02:41.220Z,65.60
2017-12-20T00:05:10.113Z,65.80
2017-12-20T00:07:39.206Z,66.00
2017-12-20T00:10:08.512Z,66.50
2017-12-20T00:12:38.052Z,66.30
2017-12-20T00:15:07.867Z,66.30
2017-12-20T00:17:38.082Z,66.10
2017-12-20T00:20:07.925Z,66.30
2017-12-20T00:22:37.060Z,67.90
2017-12-20T00:25:07.107Z,68.20
2017-12-20T00:27:36.695Z,68.30
2017-12-20T00:30:06.196Z,67.30
2017-12-20T00:32:35.090Z,67.50
2017-12-20T00:35:04.791Z,67.60
2017-12-20T00:37:33.606Z,67.40
2017-12-20T00:40:03.254Z,67.60
2017-12-20T00:42:32.793Z,67.70
2017-12-20T00:45:02.379Z,67.20
2017-12-20T00:47:31.395Z,67.20
2017-12-20T00:50:00.595Z,67.50
2017-12-20T00:52:29.486Z,67.50
2017-12-20T00:54:58.578Z,68.50
2017-12-20T00:57:27.789Z,67.80
2017-12-20T00:59:57.082Z,66.90
2017-12-20T01:02:26.378Z,66.50
2017-12-20T01:04:55.315Z,65.80
2017-12-20T01:07:24.200Z,66.90
2017-12-20T01:09:54.084Z,67.60
2017-12-20T01:12:23.114Z,67.00
2017-12-20T01:14:52.111Z,67.70
2017-12-20T01:17:21.853Z,67.30
2017-12-20T01:19:50.566Z,67.30
2017-12-20T01:22:19.770Z,66.40
2017-12-20T01:24:48.652Z,67.00
2017-12-20T01:27:18.004Z,66.60
2017-12-20T01:29:47.914Z,66.90
2017-12-20T01:32:17.829Z,66.60
2017-12-20T01:34:46.672Z,66.40
2017-12-20T01:37:15.490Z,65.70
2017-12-20T01:39:45.190Z,65.40
2017-12-20T01:42:14.983Z,64.70
2017-12-20T01:44:43.874Z,65.30
2017-12-20T01:47:12.767Z,65.50
2017-12-20T01:49:41.453Z,65.80
2017-12-20T01:52:10.346Z,66.50
2017-12-20T01:54:39.235Z,66.00
2017-12-20T01:57:08.124Z,65.60
2017-12-20T01:59:36.814Z,65.20
2017-12-20T02:02:06.518Z,66.20
2017-12-20T02:04:35.778Z,65.10
2017-12-20T02:07:05.531Z,65.20
2017-12-20T02:09:34.425Z,66.70
2017-12-20T02:12:04.087Z,66.00
2017-12-20T02:14:32.970Z,66.40
2017-12-20T02:17:01.710Z,66.00
2017-12-20T02:19:31.419Z,66.60
2017-12-20T02:22:00.310Z,67.10
2017-12-20T02:24:30.022Z,67.10
2017-12-20T02:26:59.731Z,67.00
2017-12-20T02:29:28.520Z,66.60
2017-12-20T02:31:58.235Z,67.10
2017-12-20T02:34:27.266Z,66.70
2017-12-20T02:36:56.225Z,67.30
2017-12-20T02:39:26.038Z,67.90
2017-12-20T02:41:55.683Z,67.70
2017-12-20T02:44:25.244Z,67.20
2017-12-20T02:46:54.548Z,67.50
2017-12-20T02:49:23.436Z,67.30
2017-12-20T02:51:52.739Z,67.10
2017-12-20T02:54:21.462Z,67.20
2017-12-20T02:56:51.029Z,67.90
2017-12-20T02:59:19.921Z,68.10
2017-12-20T03:01:48.814Z,68.20
2017-12-20T03:04:18.010Z,67.90
2017-12-20T03:06:47.251Z,67.80
2017-12-20T03:09:16.110Z,68.20
2017-12-20T03:11:44.887Z,68.30
2017-12-20T03:14:15.211Z,68.40
2017-12-20T03:16:44.005Z,68.50
2017-12-20T03:19:12.893Z,68.80
2017-12-20T03:21:43.423Z,69.30
2017-12-20T03:24:12.728Z,68.90
2017-12-20T03:26:41.924Z,69.00
2017-12-20T03:29:10.816Z,68.70
2017-12-20T03:31:39.907Z,69.10
2017-12-20T03:34:09.619Z,69.40
2017-12-20T03:36:38.924Z,69.10
2017-12-20T03:39:07.810Z,69.70
2017-12-20T03:41:36.905Z,70.00
2017-12-20T03:44:05.813Z,70.20
2017-12-20T03:46:34.686Z,70.50
2017-12-20T03:49:03.475Z,70.80
2017-12-20T03:51:32.365Z,71.10
2017-12-20T03:54:01.255Z,71.20
2017-12-20T03:56:30.044Z,71.10
2017-12-20T03:58:58.838Z,71.50
2017-12-20T04:01:27.518Z,71.60
2017-12-20T04:06:26.326Z,71.60
2017-12-20T04:08:55.014Z,71.60
2017-12-20T04:13:53.919Z,71.60
2017-12-20T04:16:23.425Z,71.50
2017-12-20T04:18:52.113Z,71.40
2017-12-20T04:21:20.901Z,71.60
2017-12-20T04:23:49.592Z,71.50
2017-12-20T04:26:18.272Z,71.30
2017-12-20T04:28:47.882Z,71.10
2017-12-20T04:31:16.675Z,70.90
2017-12-20T04:33:45.355Z,70.70
2017-12-20T04:36:15.376Z,71.40
2017-12-20T04:38:44.062Z,70.90
2017-12-20T04:41:12.847Z,71.00
2017-12-20T04:43:41.639Z,70.90
2017-12-20T04:46:10.430Z,70.90
2017-12-20T04:48:39.111Z,70.70
2017-12-20T04:51:07.796Z,70.70
2017-12-20T04:53:36.687Z,70.60
2017-12-20T04:56:05.374Z,70.40
2017-12-20T04:58:34.164Z,70.70
2017-12-20T05:01:02.848Z,70.80
2017-12-20T05:03:32.665Z,71.20
2017-12-20T05:06:01.758Z,70.80
2017-12-20T05:08:30.649Z,71.00
2017-12-20T05:10:59.744Z,70.30
2017-12-20T05:13:28.635Z,69.40
2017-12-20T05:15:57.327Z,68.90
2017-12-20T05:18:26.108Z,68.60
2017-12-20T05:20:55.307Z,68.10
2017-12-20T05:23:24.099Z,67.70
2017-12-20T05:25:53.813Z,67.30
2017-12-20T05:28:22.495Z,67.50
2017-12-20T05:30:51.185Z,67.20
2017-12-20T05:33:19.866Z,67.10
2017-12-20T05:35:48.555Z,67.30
2017-12-20T05:38:17.348Z,67.00
2017-12-20T05:40:46.024Z,67.00
2017-12-20T05:43:15.636Z,66.80
2017-12-20T05:45:44.526Z,67.00
2017-12-20T05:48:13.431Z,66.90
2017-12-20T05:50:42.178Z,66.80
2017-12-20T05:53:11.709Z,66.70
2017-12-20T05:55:40.602Z,66.60
2017-12-20T05:58:10.104Z,66.50
2017-12-20T06:00:38.798Z,66.70
2017-12-20T06:03:08.419Z,66.40
2017-12-20T06:05:38.108Z,66.10
2017-12-20T06:08:07.616Z,66.10
2017-12-20T06:10:37.119Z,65.90
2017-12-20T06:13:07.548Z,65.60
2017-12-20T06:15:36.647Z,65.30
2017-12-20T06:18:05.738Z,65.40
2017-12-20T06:20:34.836Z,65.60
2017-12-20T06:23:03.932Z,65.20
2017-12-20T06:25:32.957Z,64.80
2017-12-20T06:28:01.711Z,64.90
2017-12-20T06:30:30.397Z,64.50
2017-12-20T06:32:59.432Z,64.30
2017-12-20T06:35:28.179Z,64.30
2017-12-20T06:37:57.993Z,64.70
2017-12-20T06:40:27.915Z,64.00
2017-12-20T06:42:57.926Z,63.80
2017-12-20T06:45:27.326Z,64.00
2017-12-20T06:47:56.423Z,63.60
2017-12-20T06:50:25.930Z,63.80
2017-12-20T06:52:55.027Z,63.20
2017-12-20T06:55:24.280Z,63.10
2017-12-20T06:57:53.422Z,63.10
2017-12-20T07:00:22.516Z,63.00
2017-12-20T07:02:51.616Z,63.10
2017-12-20T07:05:20.202Z,63.00
2017-12-20T07:07:49.805Z,62.80
2017-12-20T07:10:18.489Z,63.00
2017-12-20T07:12:47.797Z,63.00
2017-12-20T07:15:16.890Z,62.70
2017-12-20T07:17:47.216Z,62.60
2017-12-20T07:20:15.898Z,62.50
2017-12-20T07:22:44.996Z,62.50
2017-12-20T07:25:14.909Z,62.40
2017-12-20T07:27:43.699Z,62.50
2017-12-20T07:30:12.485Z,62.20
2017-12-20T07:32:41.990Z,62.00
2017-12-20T07:35:11.084Z,62.00
2017-12-20T07:37:40.653Z,61.60
2017-12-20T07:40:10.305Z,61.90
2017-12-20T07:42:39.606Z,60.50
2017-12-20T07:45:08.992Z,60.20
2017-12-20T07:47:38.184Z,60.50
2017-12-20T07:50:07.606Z,60.30
2017-12-20T07:52:36.702Z,60.50
2017-12-20T07:55:06.208Z,60.20
2017-12-20T07:57:35.577Z,60.20
2017-12-20T08:00:05.217Z,61.00
2017-12-20T08:02:34.725Z,60.30
2017-12-20T08:05:06.481Z,60.30
2017-12-20T08:07:35.782Z,60.10
2017-12-20T08:10:04.673Z,59.70
2017-12-20T08:12:33.580Z,59.60
2017-12-20T08:15:03.280Z,59.60
2017-12-20T08:17:32.475Z,59.70
2017-12-20T08:20:01.984Z,59.30
2017-12-20T08:22:30.914Z,59.30
2017-12-20T08:25:00.376Z,60.00
2017-12-20T08:27:29.062Z,59.50
2017-12-20T08:29:59.392Z,59.40
2017-12-20T08:32:28.071Z,59.60
2017-12-20T08:34:57.167Z,59.50
2017-12-20T08:37:27.086Z,59.30
2017-12-20T08:42:26.511Z,59.00
2017-12-20T08:44:55.809Z,59.00
2017-12-20T08:47:25.726Z,58.70
2017-12-20T08:49:55.632Z,58.90
2017-12-20T08:52:24.321Z,59.20
2017-12-20T08:54:53.825Z,59.00
2017-12-20T08:57:22.922Z,58.90
2017-12-20T08:59:52.017Z,58.90
2017-12-20T09:02:21.889Z,58.90
2017-12-20T09:04:51.846Z,58.70
2017-12-20T09:07:20.943Z,58.90
2017-12-20T09:09:50.247Z,58.60
2017-12-20T09:12:19.140Z,58.50
2017-12-20T09:14:48.239Z,58.80
2017-12-20T09:17:17.738Z,59.20
2017-12-20T09:19:46.628Z,58.70
2017-12-20T09:22:15.728Z,58.60
2017-12-20T09:24:45.234Z,58.50
2017-12-20T09:27:15.148Z,58.70
2017-12-20T09:29:44.648Z,58.80
2017-12-20T09:32:14.152Z,58.30
2017-12-20T09:34:43.658Z,58.40
2017-12-20T09:37:13.574Z,58.40
2017-12-20T09:39:42.678Z,58.50
2017-12-20T09:42:12.382Z,57.90
2017-12-20T09:44:41.779Z,58.00
2017-12-20T09:47:15.703Z,58.00
2017-12-20T09:52:16.238Z,57.70
2017-12-20T09:54:46.796Z,57.20
2017-12-20T09:57:18.531Z,57.50
2017-12-20T10:02:24.092Z,57.30
2017-12-20T10:04:53.594Z,57.30
2017-12-20T10:12:23.447Z,57.50
2017-12-20T10:17:23.069Z,57.50
2017-12-20T10:19:53.390Z,58.00
2017-12-20T10:22:22.900Z,57.90
2017-12-20T10:24:53.227Z,57.60
2017-12-20T10:32:22.762Z,58.20
2017-12-20T10:37:22.702Z,58.10
2017-12-20T10:39:51.994Z,57.60
2017-12-20T10:47:22.391Z,57.90
2017-12-20T10:49:52.071Z,57.20
2017-12-20T10:52:21.367Z,57.30
2017-12-20T10:57:20.762Z,56.90
2017-12-20T10:59:50.390Z,56.90
2017-12-20T11:12:21.412Z,56.10
2017-12-20T11:14:51.359Z,55.70
2017-12-20T11:19:51.455Z,55.90
2017-12-20T11:22:20.756Z,56.30
2017-12-20T11:24:49.951Z,56.70
2017-12-20T11:29:49.476Z,55.70
2017-12-20T11:32:19.289Z,55.30
2017-12-20T11:34:48.484Z,55.30
2017-12-20T11:37:17.790Z,55.20
2017-12-20T11:42:17.409Z,55.80
2017-12-20T11:44:46.505Z,56.20
2017-12-20T11:49:45.619Z,55.90
2017-12-20T11:52:15.534Z,55.70
2017-12-20T11:57:15.977Z,56.30
2017-12-20T12:02:16.217Z,56.10
2017-12-20T12:04:45.931Z,55.90
2017-12-20T12:14:45.695Z,56.00
2017-12-20T12:17:14.890Z,56.90
2017-12-20T12:22:14.513Z,56.80
2017-12-20T12:29:43.234Z,57.00
2017-12-20T12:32:13.148Z,57.00
2017-12-20T12:42:12.250Z,58.10
2017-12-20T12:44:42.010Z,57.40
2017-12-20T12:47:12.748Z,57.40
2017-12-20T12:49:42.454Z,57.50
2017-12-20T12:54:41.671Z,57.50
2017-12-20T12:57:11.379Z,57.70
2017-12-20T13:02:11.208Z,56.90
2017-12-20T13:07:11.609Z,57.10
2017-12-20T13:09:40.856Z,57.30
2017-12-20T13:14:40.373Z,57.10
2017-12-20T13:17:09.169Z,57.20
2017-12-20T13:19:38.669Z,57.00
2017-12-20T13:22:07.869Z,56.50
2017-12-20T13:29:38.583Z,56.50
2017-12-20T13:34:38.363Z,56.80
2017-12-20T13:37:07.249Z,56.80
2017-12-20T13:39:37.651Z,56.90
2017-12-20T13:42:08.107Z,56.30
2017-12-20T13:52:07.158Z,56.10
2017-12-20T13:54:35.943Z,56.20
2017-12-20T13:57:04.840Z,56.40
2017-12-20T13:59:34.030Z,56.20
2017-12-20T14:02:03.331Z,56.10
2017-12-20T14:04:33.244Z,56.30
2017-12-20T14:07:03.471Z,56.50
2017-12-20T14:12:02.274Z,55.60
2017-12-20T14:17:01.182Z,54.70
2017-12-20T14:19:30.688Z,54.30
2017-12-20T14:22:00.296Z,54.30
2017-12-20T14:24:29.810Z,54.60
2017-12-20T14:26:59.102Z,54.90
2017-12-20T14:29:29.124Z,54.50
2017-12-20T14:31:58.629Z,54.40
2017-12-20T14:34:27.718Z,53.90
2017-12-20T14:44:27.591Z,54.20
2017-12-20T14:46:56.878Z,54.40
2017-12-20T14:49:26.389Z,54.50
2017-12-20T14:51:55.688Z,54.70
2017-12-20T14:54:24.580Z,55.10
2017-12-20T14:56:54.294Z,56.00
2017-12-20T14:59:24.421Z,56.90
2017-12-20T15:09:24.793Z,58.40
2017-12-20T15:11:54.512Z,58.20
2017-12-20T15:14:24.111Z,58.20
2017-12-20T15:16:53.756Z,58.60
2017-12-20T15:19:23.322Z,58.70
2017-12-20T15:21:52.417Z,58.00
2017-12-20T15:26:51.631Z,58.70
2017-12-20T15:29:20.731Z,57.90
2017-12-20T15:31:50.233Z,57.20
2017-12-20T15:36:50.268Z,57.70
2017-12-20T15:39:19.774Z,57.00
2017-12-20T15:41:49.073Z,56.60
2017-12-20T15:44:18.993Z,56.20
2017-12-20T15:46:49.521Z,56.80
2017-12-20T15:49:18.410Z,56.70
2017-12-20T15:56:48.975Z,57.10
2017-12-20T15:59:17.864Z,56.00
2017-12-20T16:01:46.754Z,55.80
2017-12-20T16:04:15.442Z,56.10
2017-12-20T16:09:14.595Z,55.80
2017-12-20T16:16:45.023Z,56.50
2017-12-20T16:21:45.647Z,56.90
2017-12-20T16:24:15.994Z,56.90
2017-12-20T16:26:46.321Z,56.90
2017-12-20T16:29:16.026Z,57.00
2017-12-20T16:34:15.759Z,57.40
2017-12-20T16:36:44.954Z,57.50
2017-12-20T16:39:14.152Z,57.70
2017-12-20T16:41:43.992Z,57.80
2017-12-20T16:44:14.648Z,57.90
2017-12-20T16:51:43.836Z,58.50
2017-12-20T16:54:14.362Z,58.50
2017-12-20T16:56:44.683Z,58.60
2017-12-20T16:59:13.732Z,58.80
2017-12-20T17:01:44.202Z,59.20
2017-12-20T17:06:44.544Z,58.70
2017-12-20T17:09:14.283Z,58.70
2017-12-20T17:11:44.808Z,59.30
2017-12-20T17:14:14.088Z,58.90
2017-12-20T17:19:14.053Z,58.80
2017-12-20T17:21:43.946Z,58.90
2017-12-20T17:26:43.761Z,58.40
2017-12-20T17:31:43.801Z,58.20
2017-12-20T17:39:14.257Z,58.10
2017-12-20T17:41:43.456Z,57.90
2017-12-20T17:46:43.777Z,57.80
2017-12-20T17:49:12.791Z,57.90
2017-12-20T17:51:41.992Z,57.90
2017-12-20T17:54:12.058Z,57.80
2017-12-20T18:11:43.669Z,57.10
2017-12-20T18:16:43.674Z,56.60
2017-12-20T18:19:13.623Z,56.90
2017-12-20T18:21:43.229Z,56.90
2017-12-20T18:26:42.752Z,57.30
2017-12-20T18:29:11.855Z,56.70
2017-12-20T18:31:41.145Z,56.80
2017-12-20T18:34:10.599Z,56.80
2017-12-20T18:36:40.538Z,56.50
2017-12-20T18:39:09.352Z,56.50
2017-12-20T18:41:38.576Z,56.40
2017-12-20T18:44:09.186Z,56.20
2017-12-20T18:46:38.072Z,56.90
2017-12-20T18:49:08.605Z,56.40
2017-12-20T18:51:37.906Z,56.40
2017-12-20T18:59:07.355Z,56.30
2017-12-20T19:04:08.301Z,56.30
2017-12-20T19:06:37.607Z,56.30
2017-12-20T19:09:07.314Z,57.10
2017-12-20T19:11:36.588Z,56.80
2017-12-20T19:14:05.962Z,56.60
2017-12-20T19:16:35.925Z,56.50
2017-12-20T19:19:05.009Z,56.60
2017-12-20T19:24:04.915Z,55.60
2017-12-20T19:36:35.145Z,54.80
2017-12-20T19:39:04.552Z,54.30
2017-12-20T19:41:33.951Z,54.40
2017-12-20T19:46:33.827Z,54.40
2017-12-20T19:49:03.796Z,54.70
2017-12-20T19:51:33.509Z,54.50
2017-12-20T19:56:33.241Z,54.00
2017-12-20T19:59:03.352Z,54.30
2017-12-20T20:01:32.969Z,54.20
2017-12-20T20:04:02.952Z,54.20
2017-12-20T20:06:32.158Z,54.00
2017-12-20T20:09:02.758Z,54.10
2017-12-20T20:11:33.543Z,54.30
2017-12-20T20:14:03.666Z,54.50
2017-12-20T20:16:33.111Z,54.70
2017-12-20T20:19:02.912Z,55.00
2017-12-20T20:21:32.591Z,55.50
2017-12-20T20:24:01.442Z,55.20
2017-12-20T20:26:30.778Z,55.40
2017-12-20T20:31:30.821Z,55.40
2017-12-20T20:34:00.729Z,55.50
2017-12-20T20:36:30.028Z,55.50
2017-12-20T20:39:00.047Z,55.50
2017-12-20T20:44:00.493Z,55.70
2017-12-20T20:46:30.105Z,55.60
2017-12-20T20:48:59.403Z,55.70
2017-12-20T20:51:28.699Z,55.70
2017-12-20T20:53:58.982Z,55.40
2017-12-20T20:56:28.120Z,55.40
2017-12-20T20:58:57.627Z,55.40
2017-12-20T21:01:26.934Z,55.20
2017-12-20T21:03:55.820Z,55.20
2017-12-20T21:06:24.461Z,54.90
2017-12-20T21:08:54.118Z,54.90
2017-12-20T21:11:23.620Z,55.00
2017-12-20T21:13:52.506Z,54.80
2017-12-20T21:18:52.748Z,54.40
2017-12-20T21:23:52.274Z,54.50
2017-12-20T21:26:21.114Z,54.40
2017-12-20T21:31:20.796Z,54.50
2017-12-20T21:33:50.294Z,54.80
2017-12-20T21:38:50.069Z,54.80
2017-12-20T21:41:19.630Z,54.70
2017-12-20T21:43:49.134Z,54.60
2017-12-20T21:46:17.920Z,55.00
2017-12-20T21:48:47.937Z,54.80
2017-12-20T21:51:17.252Z,54.50
2017-12-20T21:53:47.053Z,54.20
2017-12-20T21:56:15.839Z,54.40
2017-12-20T21:58:45.754Z,54.20
2017-12-20T22:03:44.611Z,54.40
2017-12-20T22:06:14.271Z,54.80
2017-12-20T22:08:43.060Z,54.40
2017-12-20T22:11:12.341Z,54.10
2017-12-20T22:13:41.459Z,54.10
2017-12-20T22:16:10.659Z,54.10
2017-12-20T22:18:39.441Z,54.20
2017-12-20T22:21:09.050Z,54.10
2017-12-20T22:26:08.776Z,54.00
2017-12-20T22:28:38.285Z,54.30
2017-12-20T22:31:08.198Z,54.20
2017-12-20T22:33:38.521Z,54.50
2017-12-20T22:36:08.232Z,54.60
2017-12-20T22:38:37.430Z,54.60
2017-12-20T22:41:06.119Z,54.50
2017-12-20T22:43:36.030Z,54.70
2017-12-20T22:46:05.028Z,55.00
2017-12-20T22:48:34.120Z,55.10
2017-12-20T22:51:02.814Z,55.10
2017-12-20T22:53:32.521Z,54.80
2017-12-20T23:01:01.342Z,55.30
2017-12-20T23:03:30.130Z,55.20
2017-12-20T23:08:29.235Z,55.10
2017-12-20T23:10:59.054Z,55.30
2017-12-20T23:13:28.785Z,55.10
2017-12-20T23:15:57.459Z,55.20
2017-12-20T23:18:26.958Z,55.20
2017-12-20T23:20:56.215Z,55.10
2017-12-20T23:23:25.509Z,55.00
2017-12-20T23:25:54.608Z,54.70
2017-12-20T23:28:24.165Z,54.70
2017-12-20T23:30:53.665Z,54.60
2017-12-20T23:35:52.779Z,54.40
2017-12-20T23:38:26.074Z,54.60
2017-12-20T23:40:55.578Z,54.30
2017-12-20T23:43:24.366Z,54.40
2017-12-20T23:45:53.842Z,54.00
2017-12-20T23:48:23.155Z,54.30
2017-12-20T23:50:51.861Z,54.40
2017-12-20T23:53:21.669Z,54.10
2017-12-20T23:55:50.714Z,54.00
2017-12-20T23:58:19.765Z,53.90
